sensor_id;sensor_type;location;lat;lon;timestamp;P1;durP1;ratioP1;P2;durP2;ratioP2
26540;SDS011;14206;50.202;10.948;2022-11-21T00:03:40;2.97;;;2.20;;
26540;SDS011;14206;50.202;10.948;2022-11-21T00:06:07;3.35;;;2.40;;
26540;SDS011;14206;50.202;10.948;2022-11-21T00:08:34;3.88;;;1.98;;
26540;SDS011;14206;50.202;10.948;2022-11-21T00:11:01;8.13;;;2.35;;
26540;SDS011;14206;50.202;10.948;2022-11-21T00:13:30;3.85;;;2.20;;
26540;SDS011;14206;50.202;10.948;2022-11-21T00:16:04;2.92;;;2.20;;
26540;SDS011;14206;50.202;10.948;2022-11-21T00:18:33;3.20;;;2.40;;
26540;SDS011;14206;50.202;10.948;2022-11-21T00:21:04;3.15;;;2.00;;
26540;SDS011;14206;50.202;10.948;2022-11-21T00:23:32;2.78;;;1.95;;
26540;SDS011;14206;50.202;10.948;2022-11-21T00:26:04;4.03;;;2.17;;
26540;SDS011;14206;50.202;10.948;2022-11-21T00:28:32;3.17;;;2.10;;
26540;SDS011;14206;50.202;10.948;2022-11-21T00:30:59;3.63;;;2.13;;
26540;SDS011;14206;50.202;10.948;2022-11-21T00:33:26;7.00;;;2.42;;
26540;SDS011;14206;50.202;10.948;2022-11-21T00:35:53;4.38;;;2.22;;
26540;SDS011;14206;50.202;10.948;2022-11-21T00:38:20;6.18;;;2.35;;
26540;SDS011;14206;50.202;10.948;2022-11-21T00:40:49;3.30;;;1.95;;
26540;SDS011;14206;50.202;10.948;2022-11-21T00:43:16;3.63;;;2.00;;
26540;SDS011;14206;50.202;10.948;2022-11-21T00:45:43;4.75;;;2.22;;
26540;SDS011;14206;50.202;10.948;2022-11-21T00:48:09;7.15;;;2.63;;
26540;SDS011;14206;50.202;10.948;2022-11-21T00:50:36;4.43;;;2.08;;
26540;SDS011;14206;50.202;10.948;2022-11-21T00:53:03;4.55;;;2.00;;
26540;SDS011;14206;50.202;10.948;2022-11-21T00:55:30;5.78;;;2.28;;
26540;SDS011;14206;50.202;10.948;2022-11-21T00:57:57;4.65;;;2.33;;
26540;SDS011;14206;50.202;10.948;2022-11-21T01:00:24;5.38;;;2.20;;
26540;SDS011;14206;50.202;10.948;2022-11-21T01:02:50;5.20;;;2.47;;
26540;SDS011;14206;50.202;10.948;2022-11-21T01:05:17;4.68;;;2.42;;
26540;SDS011;14206;50.202;10.948;2022-11-21T01:07:46;4.28;;;2.10;;
26540;SDS011;14206;50.202;10.948;2022-11-21T01:10:13;5.32;;;2.50;;
26540;SDS011;14206;50.202;10.948;2022-11-21T01:12:40;3.60;;;2.00;;
26540;SDS011;14206;50.202;10.948;2022-11-21T01:15:08;4.88;;;2.25;;
26540;SDS011;14206;50.202;10.948;2022-11-21T01:17:35;6.13;;;2.20;;
26540;SDS011;14206;50.202;10.948;2022-11-21T01:20:02;5.97;;;2.10;;
26540;SDS011;14206;50.202;10.948;2022-11-21T01:22:31;3.78;;;1.83;;
26540;SDS011;14206;50.202;10.948;2022-11-21T01:24:59;6.00;;;2.30;;
26540;SDS011;14206;50.202;10.948;2022-11-21T01:27:26;7.47;;;1.92;;
26540;SDS011;14206;50.202;10.948;2022-11-21T01:29:53;4.95;;;2.65;;
26540;SDS011;14206;50.202;10.948;2022-11-21T01:32:20;4.68;;;1.80;;
26540;SDS011;14206;50.202;10.948;2022-11-21T01:34:46;3.45;;;1.70;;
26540;SDS011;14206;50.202;10.948;2022-11-21T01:37:13;4.10;;;2.03;;
26540;SDS011;14206;50.202;10.948;2022-11-21T01:39:40;4.90;;;1.77;;
26540;SDS011;14206;50.202;10.948;2022-11-21T01:42:07;7.35;;;2.03;;
26540;SDS011;14206;50.202;10.948;2022-11-21T01:44:48;3.33;;;1.80;;
26540;SDS011;14206;50.202;10.948;2022-11-21T01:47:18;6.22;;;1.83;;
26540;SDS011;14206;50.202;10.948;2022-11-21T01:49:48;3.15;;;1.75;;
26540;SDS011;14206;50.202;10.948;2022-11-21T01:52:18;4.45;;;1.50;;
26540;SDS011;14206;50.202;10.948;2022-11-21T01:54:54;3.00;;;1.80;;
26540;SDS011;14206;50.202;10.948;2022-11-21T01:57:27;5.55;;;2.15;;
26540;SDS011;14206;50.202;10.948;2022-11-21T02:00:08;4.22;;;1.63;;
26540;SDS011;14206;50.202;10.948;2022-11-21T02:02:36;4.30;;;1.70;;
26540;SDS011;14206;50.202;10.948;2022-11-21T02:05:12;6.10;;;1.92;;
26540;SDS011;14206;50.202;10.948;2022-11-21T02:07:45;3.67;;;1.70;;
26540;SDS011;14206;50.202;10.948;2022-11-21T02:10:13;4.50;;;1.90;;
26540;SDS011;14206;50.202;10.948;2022-11-21T02:12:48;3.13;;;1.52;;
26540;SDS011;14206;50.202;10.948;2022-11-21T02:15:22;5.95;;;1.80;;
26540;SDS011;14206;50.202;10.948;2022-11-21T02:17:54;4.32;;;1.95;;
26540;SDS011;14206;50.202;10.948;2022-11-21T02:20:22;6.00;;;1.83;;
26540;SDS011;14206;50.202;10.948;2022-11-21T02:25:35;5.18;;;1.60;;
26540;SDS011;14206;50.202;10.948;2022-11-21T02:28:04;4.85;;;1.90;;
26540;SDS011;14206;50.202;10.948;2022-11-21T02:30:38;5.47;;;1.70;;
26540;SDS011;14206;50.202;10.948;2022-11-21T02:33:06;7.00;;;1.95;;
26540;SDS011;14206;50.202;10.948;2022-11-21T02:35:34;6.97;;;1.98;;
26540;SDS011;14206;50.202;10.948;2022-11-21T02:38:20;2.47;;;1.50;;
26540;SDS011;14206;50.202;10.948;2022-11-21T02:40:51;4.35;;;1.52;;
26540;SDS011;14206;50.202;10.948;2022-11-21T02:43:27;4.55;;;1.80;;
26540;SDS011;14206;50.202;10.948;2022-11-21T02:46:21;3.75;;;1.60;;
26540;SDS011;14206;50.202;10.948;2022-11-21T02:48:48;6.22;;;1.90;;
26540;SDS011;14206;50.202;10.948;2022-11-21T02:51:15;7.13;;;1.98;;
26540;SDS011;14206;50.202;10.948;2022-11-21T02:53:41;5.40;;;1.80;;
26540;SDS011;14206;50.202;10.948;2022-11-21T02:56:08;4.45;;;1.80;;
26540;SDS011;14206;50.202;10.948;2022-11-21T02:58:35;3.28;;;1.40;;
26540;SDS011;14206;50.202;10.948;2022-11-21T03:01:02;7.05;;;1.63;;
26540;SDS011;14206;50.202;10.948;2022-11-21T03:03:29;3.90;;;1.60;;
26540;SDS011;14206;50.202;10.948;2022-11-21T03:05:56;6.35;;;2.05;;
26540;SDS011;14206;50.202;10.948;2022-11-21T03:08:23;5.78;;;1.88;;
26540;SDS011;14206;50.202;10.948;2022-11-21T03:10:50;4.00;;;1.75;;
26540;SDS011;14206;50.202;10.948;2022-11-21T03:13:16;5.50;;;1.70;;
26540;SDS011;14206;50.202;10.948;2022-11-21T03:15:43;3.95;;;1.60;;
26540;SDS011;14206;50.202;10.948;2022-11-21T03:18:10;7.60;;;1.88;;
26540;SDS011;14206;50.202;10.948;2022-11-21T03:20:37;2.95;;;1.65;;
26540;SDS011;14206;50.202;10.948;2022-11-21T03:23:04;4.60;;;1.70;;
26540;SDS011;14206;50.202;10.948;2022-11-21T03:25:31;6.13;;;1.77;;
26540;SDS011;14206;50.202;10.948;2022-11-21T03:27:58;4.47;;;2.10;;
26540;SDS011;14206;50.202;10.948;2022-11-21T03:30:25;5.15;;;1.80;;
26540;SDS011;14206;50.202;10.948;2022-11-21T03:32:55;3.63;;;1.77;;
26540;SDS011;14206;50.202;10.948;2022-11-21T03:35:23;4.95;;;1.70;;
26540;SDS011;14206;50.202;10.948;2022-11-21T03:37:50;4.18;;;1.73;;
26540;SDS011;14206;50.202;10.948;2022-11-21T03:40:17;4.15;;;1.88;;
26540;SDS011;14206;50.202;10.948;2022-11-21T03:42:44;5.95;;;2.17;;
26540;SDS011;14206;50.202;10.948;2022-11-21T03:45:11;5.07;;;1.90;;
26540;SDS011;14206;50.202;10.948;2022-11-21T03:47:38;5.38;;;1.60;;
26540;SDS011;14206;50.202;10.948;2022-11-21T03:50:05;5.70;;;1.77;;
26540;SDS011;14206;50.202;10.948;2022-11-21T03:52:33;4.53;;;1.60;;
26540;SDS011;14206;50.202;10.948;2022-11-21T03:54:59;3.88;;;1.75;;
26540;SDS011;14206;50.202;10.948;2022-11-21T03:57:26;4.60;;;1.85;;
26540;SDS011;14206;50.202;10.948;2022-11-21T03:59:53;2.40;;;1.50;;
26540;SDS011;14206;50.202;10.948;2022-11-21T04:02:20;4.13;;;1.55;;
26540;SDS011;14206;50.202;10.948;2022-11-21T04:04:46;5.22;;;1.60;;
26540;SDS011;14206;50.202;10.948;2022-11-21T04:07:13;3.28;;;1.77;;
26540;SDS011;14206;50.202;10.948;2022-11-21T04:09:41;3.30;;;1.60;;
26540;SDS011;14206;50.202;10.948;2022-11-21T04:12:08;5.47;;;1.77;;
26540;SDS011;14206;50.202;10.948;2022-11-21T04:14:35;4.15;;;1.90;;
26540;SDS011;14206;50.202;10.948;2022-11-21T04:17:02;3.72;;;1.73;;
26540;SDS011;14206;50.202;10.948;2022-11-21T04:19:28;2.13;;;1.23;;
26540;SDS011;14206;50.202;10.948;2022-11-21T04:21:55;3.75;;;1.63;;
26540;SDS011;14206;50.202;10.948;2022-11-21T04:24:22;5.32;;;1.55;;
26540;SDS011;14206;50.202;10.948;2022-11-21T04:26:49;3.10;;;1.20;;
26540;SDS011;14206;50.202;10.948;2022-11-21T04:29:16;4.55;;;1.70;;
26540;SDS011;14206;50.202;10.948;2022-11-21T04:31:42;4.97;;;1.70;;
26540;SDS011;14206;50.202;10.948;2022-11-21T04:34:09;3.30;;;1.52;;
26540;SDS011;14206;50.202;10.948;2022-11-21T04:36:36;5.65;;;1.67;;
26540;SDS011;14206;50.202;10.948;2022-11-21T04:39:03;3.60;;;1.50;;
26540;SDS011;14206;50.202;10.948;2022-11-21T04:41:30;6.85;;;1.88;;
26540;SDS011;14206;50.202;10.948;2022-11-21T04:43:57;5.72;;;1.45;;
26540;SDS011;14206;50.202;10.948;2022-11-21T04:46:23;5.82;;;1.75;;
26540;SDS011;14206;50.202;10.948;2022-11-21T04:48:50;6.13;;;1.73;;
26540;SDS011;14206;50.202;10.948;2022-11-21T04:51:17;6.18;;;1.83;;
26540;SDS011;14206;50.202;10.948;2022-11-21T04:53:44;3.70;;;1.73;;
26540;SDS011;14206;50.202;10.948;2022-11-21T04:56:11;5.35;;;1.77;;
26540;SDS011;14206;50.202;10.948;2022-11-21T04:58:42;5.57;;;1.88;;
26540;SDS011;14206;50.202;10.948;2022-11-21T05:01:10;5.05;;;1.88;;
26540;SDS011;14206;50.202;10.948;2022-11-21T05:03:37;6.47;;;1.65;;
26540;SDS011;14206;50.202;10.948;2022-11-21T05:06:04;3.78;;;1.48;;
26540;SDS011;14206;50.202;10.948;2022-11-21T05:08:31;6.03;;;1.73;;
26540;SDS011;14206;50.202;10.948;2022-11-21T05:10:58;3.38;;;1.65;;
26540;SDS011;14206;50.202;10.948;2022-11-21T05:13:43;4.22;;;1.73;;
26540;SDS011;14206;50.202;10.948;2022-11-21T05:16:10;2.85;;;1.35;;
26540;SDS011;14206;50.202;10.948;2022-11-21T05:18:37;3.35;;;1.50;;
26540;SDS011;14206;50.202;10.948;2022-11-21T05:21:04;6.75;;;2.00;;
26540;SDS011;14206;50.202;10.948;2022-11-21T05:23:31;3.25;;;1.73;;
26540;SDS011;14206;50.202;10.948;2022-11-21T05:25:58;4.05;;;1.70;;
26540;SDS011;14206;50.202;10.948;2022-11-21T05:28:24;2.20;;;1.45;;
26540;SDS011;14206;50.202;10.948;2022-11-21T05:30:51;2.03;;;1.25;;
26540;SDS011;14206;50.202;10.948;2022-11-21T05:33:18;4.85;;;1.75;;
26540;SDS011;14206;50.202;10.948;2022-11-21T05:35:45;4.80;;;1.40;;
26540;SDS011;14206;50.202;10.948;2022-11-21T05:38:12;3.55;;;1.30;;
26540;SDS011;14206;50.202;10.948;2022-11-21T05:40:39;3.30;;;1.40;;
26540;SDS011;14206;50.202;10.948;2022-11-21T05:43:06;3.85;;;1.50;;
26540;SDS011;14206;50.202;10.948;2022-11-21T05:45:53;3.10;;;1.40;;
26540;SDS011;14206;50.202;10.948;2022-11-21T05:48:20;3.35;;;1.30;;
26540;SDS011;14206;50.202;10.948;2022-11-21T05:50:47;3.95;;;1.48;;
26540;SDS011;14206;50.202;10.948;2022-11-21T05:53:15;2.38;;;1.00;;
26540;SDS011;14206;50.202;10.948;2022-11-21T05:55:42;1.42;;;1.00;;
26540;SDS011;14206;50.202;10.948;2022-11-21T05:58:09;2.05;;;1.20;;
26540;SDS011;14206;50.202;10.948;2022-11-21T06:00:37;3.08;;;1.33;;
26540;SDS011;14206;50.202;10.948;2022-11-21T06:03:04;1.35;;;1.00;;
26540;SDS011;14206;50.202;10.948;2022-11-21T06:05:50;5.03;;;1.67;;
26540;SDS011;14206;50.202;10.948;2022-11-21T06:08:18;4.03;;;1.40;;
26540;SDS011;14206;50.202;10.948;2022-11-21T06:10:44;3.72;;;1.48;;
26540;SDS011;14206;50.202;10.948;2022-11-21T06:13:11;2.45;;;1.40;;
26540;SDS011;14206;50.202;10.948;2022-11-21T06:15:52;3.20;;;1.40;;
26540;SDS011;14206;50.202;10.948;2022-11-21T06:18:27;1.80;;;1.10;;
26540;SDS011;14206;50.202;10.948;2022-11-21T06:21:15;2.20;;;1.17;;
26540;SDS011;14206;50.202;10.948;2022-11-21T06:23:43;2.35;;;1.30;;
26540;SDS011;14206;50.202;10.948;2022-11-21T06:26:12;2.40;;;1.10;;
26540;SDS011;14206;50.202;10.948;2022-11-21T06:28:40;3.38;;;1.15;;
26540;SDS011;14206;50.202;10.948;2022-11-21T06:31:18;3.75;;;1.40;;
26540;SDS011;14206;50.202;10.948;2022-11-21T06:33:50;1.95;;;1.13;;
26540;SDS011;14206;50.202;10.948;2022-11-21T06:36:18;2.45;;;1.40;;
26540;SDS011;14206;50.202;10.948;2022-11-21T06:38:45;1.83;;;1.20;;
26540;SDS011;14206;50.202;10.948;2022-11-21T06:41:13;1.95;;;1.00;;
26540;SDS011;14206;50.202;10.948;2022-11-21T06:43:40;1.20;;;1.10;;
26540;SDS011;14206;50.202;10.948;2022-11-21T06:46:08;1.40;;;1.30;;
26540;SDS011;14206;50.202;10.948;2022-11-21T06:48:35;1.50;;;1.20;;
26540;SDS011;14206;50.202;10.948;2022-11-21T06:51:03;1.30;;;1.20;;
26540;SDS011;14206;50.202;10.948;2022-11-21T06:53:38;2.10;;;1.50;;
26540;SDS011;14206;50.202;10.948;2022-11-21T06:56:05;1.30;;;1.20;;
26540;SDS011;14206;50.202;10.948;2022-11-21T06:58:32;1.15;;;1.05;;
26540;SDS011;14206;50.202;10.948;2022-11-21T07:01:08;1.83;;;1.30;;
26540;SDS011;14206;50.202;10.948;2022-11-21T07:03:36;1.30;;;1.20;;
26540;SDS011;14206;50.202;10.948;2022-11-21T07:06:03;1.48;;;1.10;;
26540;SDS011;14206;50.202;10.948;2022-11-21T07:08:31;1.88;;;1.30;;
26540;SDS011;14206;50.202;10.948;2022-11-21T07:11:02;1.65;;;1.20;;
26540;SDS011;14206;50.202;10.948;2022-11-21T07:13:50;2.38;;;1.08;;
26540;SDS011;14206;50.202;10.948;2022-11-21T07:16:17;1.30;;;1.00;;
26540;SDS011;14206;50.202;10.948;2022-11-21T07:18:44;1.52;;;1.08;;
26540;SDS011;14206;50.202;10.948;2022-11-21T07:21:11;1.52;;;1.10;;
26540;SDS011;14206;50.202;10.948;2022-11-21T07:23:38;2.33;;;0.90;;
26540;SDS011;14206;50.202;10.948;2022-11-21T07:26:06;1.85;;;1.10;;
26540;SDS011;14206;50.202;10.948;2022-11-21T07:28:35;0.90;;;0.90;;
26540;SDS011;14206;50.202;10.948;2022-11-21T07:31:02;1.00;;;1.00;;
26540;SDS011;14206;50.202;10.948;2022-11-21T07:33:35;1.00;;;1.00;;
26540;SDS011;14206;50.202;10.948;2022-11-21T07:36:05;1.27;;;1.17;;
26540;SDS011;14206;50.202;10.948;2022-11-21T07:38:32;1.00;;;1.00;;
26540;SDS011;14206;50.202;10.948;2022-11-21T07:40:59;1.30;;;1.15;;
26540;SDS011;14206;50.202;10.948;2022-11-21T07:43:26;1.20;;;1.10;;
26540;SDS011;14206;50.202;10.948;2022-11-21T07:45:53;2.08;;;1.20;;
26540;SDS011;14206;50.202;10.948;2022-11-21T07:48:21;1.20;;;1.08;;
26540;SDS011;14206;50.202;10.948;2022-11-21T07:50:47;0.95;;;0.88;;
26540;SDS011;14206;50.202;10.948;2022-11-21T07:53:14;1.02;;;0.90;;
26540;SDS011;14206;50.202;10.948;2022-11-21T07:55:42;1.15;;;0.90;;
26540;SDS011;14206;50.202;10.948;2022-11-21T07:58:15;0.90;;;0.90;;
26540;SDS011;14206;50.202;10.948;2022-11-21T08:00:42;0.93;;;0.93;;
26540;SDS011;14206;50.202;10.948;2022-11-21T08:03:10;1.02;;;1.00;;
26540;SDS011;14206;50.202;10.948;2022-11-21T08:05:39;0.80;;;0.80;;
26540;SDS011;14206;50.202;10.948;2022-11-21T08:08:07;1.02;;;0.88;;
26540;SDS011;14206;50.202;10.948;2022-11-21T08:10:39;1.30;;;0.98;;
26540;SDS011;14206;50.202;10.948;2022-11-21T08:13:12;2.97;;;2.17;;
26540;SDS011;14206;50.202;10.948;2022-11-21T08:15:39;1.83;;;1.63;;
26540;SDS011;14206;50.202;10.948;2022-11-21T08:18:08;1.75;;;1.40;;
26540;SDS011;14206;50.202;10.948;2022-11-21T08:20:39;1.55;;;1.17;;
26540;SDS011;14206;50.202;10.948;2022-11-21T08:23:07;1.45;;;1.30;;
26540;SDS011;14206;50.202;10.948;2022-11-21T08:25:35;1.40;;;1.20;;
26540;SDS011;14206;50.202;10.948;2022-11-21T08:28:04;1.73;;;1.60;;
26540;SDS011;14206;50.202;10.948;2022-11-21T08:30:32;1.65;;;1.30;;
26540;SDS011;14206;50.202;10.948;2022-11-21T08:32:59;1.30;;;1.20;;
26540;SDS011;14206;50.202;10.948;2022-11-21T08:35:27;1.70;;;1.40;;
26540;SDS011;14206;50.202;10.948;2022-11-21T08:37:55;1.60;;;1.45;;
26540;SDS011;14206;50.202;10.948;2022-11-21T08:40:26;2.45;;;1.75;;
26540;SDS011;14206;50.202;10.948;2022-11-21T08:43:04;2.55;;;1.30;;
26540;SDS011;14206;50.202;10.948;2022-11-21T08:45:33;1.35;;;1.20;;
26540;SDS011;14206;50.202;10.948;2022-11-21T08:48:01;1.10;;;1.00;;
26540;SDS011;14206;50.202;10.948;2022-11-21T08:50:28;1.05;;;0.95;;
26540;SDS011;14206;50.202;10.948;2022-11-21T08:53:00;1.20;;;1.10;;
26540;SDS011;14206;50.202;10.948;2022-11-21T08:55:28;1.35;;;0.95;;
26540;SDS011;14206;50.202;10.948;2022-11-21T08:57:56;2.25;;;1.27;;
26540;SDS011;14206;50.202;10.948;2022-11-21T09:00:23;1.15;;;1.05;;
26540;SDS011;14206;50.202;10.948;2022-11-21T09:02:51;1.20;;;1.00;;
26540;SDS011;14206;50.202;10.948;2022-11-21T09:05:18;0.85;;;0.85;;
26540;SDS011;14206;50.202;10.948;2022-11-21T09:07:44;0.93;;;0.73;;
26540;SDS011;14206;50.202;10.948;2022-11-21T09:10:13;0.60;;;0.60;;
26540;SDS011;14206;50.202;10.948;2022-11-21T09:12:40;0.95;;;0.73;;
26540;SDS011;14206;50.202;10.948;2022-11-21T09:15:08;1.40;;;0.90;;
26540;SDS011;14206;50.202;10.948;2022-11-21T09:17:54;0.68;;;0.68;;
26540;SDS011;14206;50.202;10.948;2022-11-21T09:20:33;1.00;;;0.90;;
26540;SDS011;14206;50.202;10.948;2022-11-21T09:23:05;1.45;;;0.60;;
26540;SDS011;14206;50.202;10.948;2022-11-21T09:28:07;0.90;;;0.75;;
26540;SDS011;14206;50.202;10.948;2022-11-21T09:30:35;0.90;;;0.70;;
26540;SDS011;14206;50.202;10.948;2022-11-21T09:33:04;0.85;;;0.80;;
26540;SDS011;14206;50.202;10.948;2022-11-21T09:35:32;2.45;;;1.20;;
26540;SDS011;14206;50.202;10.948;2022-11-21T09:37:59;1.40;;;0.80;;
26540;SDS011;14206;50.202;10.948;2022-11-21T09:40:28;0.88;;;0.80;;
26540;SDS011;14206;50.202;10.948;2022-11-21T09:48:16;1.25;;;0.85;;
26540;SDS011;14206;50.202;10.948;2022-11-21T09:50:56;1.00;;;0.80;;
26540;SDS011;14206;50.202;10.948;2022-11-21T09:53:37;1.35;;;1.00;;
26540;SDS011;14206;50.202;10.948;2022-11-21T09:56:16;2.55;;;1.20;;
26540;SDS011;14206;50.202;10.948;2022-11-21T10:01:42;2.15;;;1.10;;
26540;SDS011;14206;50.202;10.948;2022-11-21T10:04:10;0.95;;;0.85;;
26540;SDS011;14206;50.202;10.948;2022-11-21T10:12:32;1.95;;;1.10;;
26540;SDS011;14206;50.202;10.948;2022-11-21T10:20:46;1.90;;;1.15;;
26540;SDS011;14206;50.202;10.948;2022-11-21T10:32:17;10.70;;;2.60;;
26540;SDS011;14206;50.202;10.948;2022-11-21T10:34:52;3.35;;;1.63;;
26540;SDS011;14206;50.202;10.948;2022-11-21T10:37:30;1.85;;;1.30;;
26540;SDS011;14206;50.202;10.948;2022-11-21T10:40:15;1.25;;;0.93;;
26540;SDS011;14206;50.202;10.948;2022-11-21T10:42:54;1.48;;;1.13;;
26540;SDS011;14206;50.202;10.948;2022-11-21T10:45:23;1.23;;;1.00;;
26540;SDS011;14206;50.202;10.948;2022-11-21T10:47:51;1.15;;;0.90;;
26540;SDS011;14206;50.202;10.948;2022-11-21T10:50:23;1.20;;;1.10;;
26540;SDS011;14206;50.202;10.948;2022-11-21T10:53:16;2.05;;;1.17;;
26540;SDS011;14206;50.202;10.948;2022-11-21T10:56:06;1.52;;;1.17;;
26540;SDS011;14206;50.202;10.948;2022-11-21T10:58:42;0.93;;;0.90;;
26540;SDS011;14206;50.202;10.948;2022-11-21T11:01:26;0.85;;;0.85;;
26540;SDS011;14206;50.202;10.948;2022-11-21T11:06:50;3.10;;;1.77;;
26540;SDS011;14206;50.202;10.948;2022-11-21T11:09:21;2.42;;;1.60;;
26540;SDS011;14206;50.202;10.948;2022-11-21T11:11:50;1.50;;;1.40;;
26540;SDS011;14206;50.202;10.948;2022-11-21T11:14:25;1.73;;;1.33;;
26540;SDS011;14206;50.202;10.948;2022-11-21T11:16:56;1.85;;;1.35;;
26540;SDS011;14206;50.202;10.948;2022-11-21T11:19:25;1.38;;;1.25;;
26540;SDS011;14206;50.202;10.948;2022-11-21T11:22:10;1.30;;;1.20;;
26540;SDS011;14206;50.202;10.948;2022-11-21T11:24:53;1.30;;;1.20;;
26540;SDS011;14206;50.202;10.948;2022-11-21T11:27:26;1.45;;;1.30;;
26540;SDS011;14206;50.202;10.948;2022-11-21T11:29:54;1.58;;;1.48;;
26540;SDS011;14206;50.202;10.948;2022-11-21T11:32:21;1.50;;;1.23;;
26540;SDS011;14206;50.202;10.948;2022-11-21T11:39:57;2.03;;;1.58;;
26540;SDS011;14206;50.202;10.948;2022-11-21T11:43:48;1.73;;;1.40;;
26540;SDS011;14206;50.202;10.948;2022-11-21T11:49:25;1.50;;;1.35;;
26540;SDS011;14206;50.202;10.948;2022-11-21T11:52:30;1.80;;;1.30;;
26540;SDS011;14206;50.202;10.948;2022-11-21T11:55:02;1.45;;;1.30;;
26540;SDS011;14206;50.202;10.948;2022-11-21T11:57:33;2.15;;;1.20;;
26540;SDS011;14206;50.202;10.948;2022-11-21T12:00:13;1.45;;;1.30;;
26540;SDS011;14206;50.202;10.948;2022-11-21T12:05:51;1.50;;;1.40;;
26540;SDS011;14206;50.202;10.948;2022-11-21T12:08:34;1.75;;;1.48;;
26540;SDS011;14206;50.202;10.948;2022-11-21T12:11:54;1.95;;;1.75;;
26540;SDS011;14206;50.202;10.948;2022-11-21T12:17:08;4.00;;;2.78;;
26540;SDS011;14206;50.202;10.948;2022-11-21T12:19:36;3.90;;;2.60;;
26540;SDS011;14206;50.202;10.948;2022-11-21T12:22:04;3.58;;;3.15;;
26540;SDS011;14206;50.202;10.948;2022-11-21T12:24:32;4.40;;;3.25;;
26540;SDS011;14206;50.202;10.948;2022-11-21T12:27:23;3.83;;;2.90;;
26540;SDS011;14206;50.202;10.948;2022-11-21T12:38:15;4.20;;;3.10;;
26540;SDS011;14206;50.202;10.948;2022-11-21T12:46:26;2.70;;;2.30;;
26540;SDS011;14206;50.202;10.948;2022-11-21T12:49:06;4.57;;;2.55;;
26540;SDS011;14206;50.202;10.948;2022-11-21T12:52:24;2.80;;;2.40;;
26540;SDS011;14206;50.202;10.948;2022-11-21T12:55:34;2.60;;;2.33;;
26540;SDS011;14206;50.202;10.948;2022-11-21T12:58:12;3.25;;;2.47;;
26540;SDS011;14206;50.202;10.948;2022-11-21T13:01:05;3.00;;;2.60;;
26540;SDS011;14206;50.202;10.948;2022-11-21T13:03:51;2.38;;;2.17;;
26540;SDS011;14206;50.202;10.948;2022-11-21T13:06:32;2.97;;;2.40;;
26540;SDS011;14206;50.202;10.948;2022-11-21T13:09:13;5.68;;;3.80;;
26540;SDS011;14206;50.202;10.948;2022-11-21T13:11:59;3.72;;;3.40;;
26540;SDS011;14206;50.202;10.948;2022-11-21T13:17:08;3.75;;;3.10;;
26540;SDS011;14206;50.202;10.948;2022-11-21T13:22:50;6.93;;;4.32;;
26540;SDS011;14206;50.202;10.948;2022-11-21T13:30:48;6.18;;;4.60;;
26540;SDS011;14206;50.202;10.948;2022-11-21T14:08:41;4.00;;;3.38;;
26540;SDS011;14206;50.202;10.948;2022-11-21T14:11:18;3.30;;;3.00;;
26540;SDS011;14206;50.202;10.948;2022-11-21T14:13:47;3.33;;;2.67;;
26540;SDS011;14206;50.202;10.948;2022-11-21T14:18:53;4.20;;;3.50;;
26540;SDS011;14206;50.202;10.948;2022-11-21T14:21:22;4.10;;;2.85;;
26540;SDS011;14206;50.202;10.948;2022-11-21T14:23:59;4.32;;;2.50;;
26540;SDS011;14206;50.202;10.948;2022-11-21T14:26:30;2.90;;;2.70;;
26540;SDS011;14206;50.202;10.948;2022-11-21T14:32:16;2.42;;;2.13;;
26540;SDS011;14206;50.202;10.948;2022-11-21T14:34:52;4.32;;;2.63;;
26540;SDS011;14206;50.202;10.948;2022-11-21T14:37:40;4.27;;;2.83;;
26540;SDS011;14206;50.202;10.948;2022-11-21T14:40:10;2.53;;;1.77;;
26540;SDS011;14206;50.202;10.948;2022-11-21T14:42:39;2.50;;;2.30;;
26540;SDS011;14206;50.202;10.948;2022-11-21T14:45:07;3.10;;;2.80;;
26540;SDS011;14206;50.202;10.948;2022-11-21T14:47:51;2.13;;;2.00;;
26540;SDS011;14206;50.202;10.948;2022-11-21T14:52:58;2.20;;;2.00;;
26540;SDS011;14206;50.202;10.948;2022-11-21T14:55:30;2.45;;;1.85;;
26540;SDS011;14206;50.202;10.948;2022-11-21T14:57:59;2.33;;;1.73;;
26540;SDS011;14206;50.202;10.948;2022-11-21T15:00:28;1.85;;;1.60;;
26540;SDS011;14206;50.202;10.948;2022-11-21T15:03:20;1.65;;;1.48;;
26540;SDS011;14206;50.202;10.948;2022-11-21T15:05:49;1.63;;;1.52;;
26540;SDS011;14206;50.202;10.948;2022-11-21T15:08:33;4.57;;;2.67;;
26540;SDS011;14206;50.202;10.948;2022-11-21T15:11:22;4.85;;;3.05;;
26540;SDS011;14206;50.202;10.948;2022-11-21T15:13:56;7.80;;;4.40;;
26540;SDS011;14206;50.202;10.948;2022-11-21T15:16:44;11.63;;;5.60;;
26540;SDS011;14206;50.202;10.948;2022-11-21T15:19:17;11.90;;;6.45;;
26540;SDS011;14206;50.202;10.948;2022-11-21T15:21:49;6.55;;;3.90;;
26540;SDS011;14206;50.202;10.948;2022-11-21T15:24:26;5.35;;;3.05;;
26540;SDS011;14206;50.202;10.948;2022-11-21T15:26:56;3.80;;;2.92;;
26540;SDS011;14206;50.202;10.948;2022-11-21T15:29:23;3.40;;;2.42;;
26540;SDS011;14206;50.202;10.948;2022-11-21T15:32:09;2.65;;;2.10;;
26540;SDS011;14206;50.202;10.948;2022-11-21T15:34:42;4.60;;;2.42;;
26540;SDS011;14206;50.202;10.948;2022-11-21T15:37:15;7.15;;;3.17;;
26540;SDS011;14206;50.202;10.948;2022-11-21T15:39:43;8.10;;;3.15;;
26540;SDS011;14206;50.202;10.948;2022-11-21T15:45:21;3.10;;;2.38;;
26540;SDS011;14206;50.202;10.948;2022-11-21T15:47:51;3.15;;;2.78;;
26540;SDS011;14206;50.202;10.948;2022-11-21T15:50:20;2.50;;;2.20;;
26540;SDS011;14206;50.202;10.948;2022-11-21T15:52:50;7.22;;;3.33;;
26540;SDS011;14206;50.202;10.948;2022-11-21T15:55:24;4.90;;;2.60;;
26540;SDS011;14206;50.202;10.948;2022-11-21T15:57:53;5.88;;;3.20;;
26540;SDS011;14206;50.202;10.948;2022-11-21T16:00:20;7.80;;;3.63;;
26540;SDS011;14206;50.202;10.948;2022-11-21T16:02:47;6.05;;;3.45;;
26540;SDS011;14206;50.202;10.948;2022-11-21T16:05:14;5.55;;;3.50;;
26540;SDS011;14206;50.202;10.948;2022-11-21T16:07:41;8.45;;;3.97;;
26540;SDS011;14206;50.202;10.948;2022-11-21T16:10:08;8.00;;;4.47;;
26540;SDS011;14206;50.202;10.948;2022-11-21T16:12:46;7.55;;;4.25;;
26540;SDS011;14206;50.202;10.948;2022-11-21T16:15:13;13.50;;;5.63;;
26540;SDS011;14206;50.202;10.948;2022-11-21T16:17:41;12.48;;;6.05;;
26540;SDS011;14206;50.202;10.948;2022-11-21T16:20:07;14.15;;;6.45;;
26540;SDS011;14206;50.202;10.948;2022-11-21T16:22:35;11.63;;;4.95;;
26540;SDS011;14206;50.202;10.948;2022-11-21T16:25:01;8.02;;;4.13;;
26540;SDS011;14206;50.202;10.948;2022-11-21T16:27:30;10.73;;;4.47;;
26540;SDS011;14206;50.202;10.948;2022-11-21T16:29:57;13.05;;;5.30;;
26540;SDS011;14206;50.202;10.948;2022-11-21T16:32:24;16.65;;;5.68;;
26540;SDS011;14206;50.202;10.948;2022-11-21T16:34:51;8.95;;;4.30;;
26540;SDS011;14206;50.202;10.948;2022-11-21T16:37:19;7.47;;;3.63;;
26540;SDS011;14206;50.202;10.948;2022-11-21T16:39:46;7.22;;;3.45;;
26540;SDS011;14206;50.202;10.948;2022-11-21T16:42:18;6.85;;;3.50;;
26540;SDS011;14206;50.202;10.948;2022-11-21T16:44:45;7.35;;;3.20;;
26540;SDS011;14206;50.202;10.948;2022-11-21T16:47:13;3.03;;;2.38;;
26540;SDS011;14206;50.202;10.948;2022-11-21T16:49:40;3.63;;;2.78;;
26540;SDS011;14206;50.202;10.948;2022-11-21T16:52:13;3.55;;;2.72;;
26540;SDS011;14206;50.202;10.948;2022-11-21T16:54:40;4.35;;;3.00;;
26540;SDS011;14206;50.202;10.948;2022-11-21T16:57:07;4.32;;;3.15;;
26540;SDS011;14206;50.202;10.948;2022-11-21T16:59:34;9.15;;;3.95;;
26540;SDS011;14206;50.202;10.948;2022-11-21T17:02:01;8.38;;;4.10;;